• Join FlightAware (Why Join?)
  • Login
  • US Flag 
08:16AM EDT


 

Airport Tracker/Info


-or-


 

Live Flight TrackerFlight Track Log ✈ AAY855 ✈ 10-Mar-2014 ✈ KSBN - KPIE

Flight Track Log - Related Links

Times and Time Zones

All times are in EDT time to prevent confusion due to time zone crossing. See the AAY855 flight status page for this flight to view local times or setup timezone preferences in your user account.

Time Position Orientation Groundspeed Altitude Reporting Facility
EDT Latitude Longitude Course Direction KTS MPH feet Rate Location/Type
06:37PM 41.6739 -86.3969 131° Southeast 208 239 3,100  Level Chicago Center
06:38PM 41.5961 -86.3889 176° South 288 331 6,200 2,700 Climbing Chicago Center
06:39PM 41.5464 -86.2956 125° Southeast 310 357 8,700 1,920 Climbing Chicago Center
06:40PM 41.4781 -86.2147 138° Southeast 337 388 10,200 1,200 Climbing Chicago Center
06:41PM 41.3756 -86.1708 162° South 384 442 11,300 1,620 Climbing Chicago Center
06:42PM 41.3208 -85.7145 131° Southeast  Level FlightAware Approximate
06:42PM 41.2647 -86.1175 160° South 420 483 13,600  Level Chicago Center
06:43PM 41.2426 -85.5967 131° Southeast  Level FlightAware Approximate
06:43PM 41.1239 -86.0578 162° South 443 510 15,900  Level Chicago Center
06:44PM 41.0014 -86.0081 163° South 458 527 18,200 2,100 Climbing Chicago Center
06:45PM 40.8764 -85.9625 165° South 466 536 20,300 1,740 Climbing Chicago Center
06:46PM 40.7489 -85.9278 168° South 468 539 21,800 1,500 Climbing Chicago Center
06:47PM 40.6053 -85.8850 167° South 480 552 23,400 1,620 Climbing Chicago Center
06:48PM 40.4722 -85.8450 167° South 487 560 25,200 1,560 Climbing Chicago Center
06:49PM 40.3406 -85.8031 166° South 486 559 26,700 1,500 Climbing Chicago Center
06:50PM 40.2106 -85.7600 166° South 483 556 28,300 1,080 Climbing Chicago Center
06:52PM 40.0828 -85.6989 160° South 484 557 29,000 1,020 Climbing Chicago Center
06:53PM 39.9297 -85.6272 160° South 483 556 30,500 960 Climbing Chicago Center
06:54PM 39.8042 -85.5719 161° South 477 549 31,100 240 Climbing Chicago Center
06:55PM 39.6744 -85.5131 161° South 488 562 31,000 -60 Descending Chicago Center
06:56PM 39.5417 -85.4825 170° South 488 562 31,000  Level Chicago Center
06:57PM 39.3522 -85.4497 172° South 484 557 31,000  Level Indianapolis Center
06:58PM 39.2186 -85.4233 171° South 484 557 31,000  Level Indianapolis Center
06:59PM 39.0831 -85.3981 172° South 485 558 31,000  Level Indianapolis Center
07:00PM 38.9478 -85.3733 172° South 487 560 31,000  Level Indianapolis Center
07:01PM 38.8125 -85.3467 171° South 490 564 31,000  Level Indianapolis Center
07:02PM 38.6506 -85.3158 172° South 491 565 31,000  Level Indianapolis Center
07:03PM 38.5206 -85.2925 172° South 491 565 31,000  Level Indianapolis Center
07:04PM 38.3853 -85.2669 172° South 490 564 31,000  Level Indianapolis Center
07:05PM 38.2519 -85.2417 172° South 487 560 31,000  Level Indianapolis Center
07:06PM 38.1169 -85.2175 172° South 487 560 31,100  Climbing Indianapolis Center
07:07PM 37.9606 -85.1883 172° South 486 559 31,000 -60 Descending Indianapolis Center
07:08PM 37.8272 -85.1622 171° South 483 556 31,000  Level Indianapolis Center
07:09PM 37.6936 -85.1389 172° South 483 556 31,000  Level Indianapolis Center
07:10PM 37.5617 -85.1133 171° South 483 556 31,000  Level Indianapolis Center
07:11PM 37.4272 -85.0903 172° South 483 556 31,000  Level Indianapolis Center
07:12PM 37.2728 -85.0619 172° South 483 556 31,000  Level Indianapolis Center
07:14PM 37.1400 -85.0386 172° South 483 556 31,000  Level Indianapolis Center
07:15PM 37.0214 -85.0172 172° South 483 556 31,000  Level Indianapolis Center
07:16PM 36.8631 -84.9897 172° South 482 555 31,000  Level Indianapolis Center
07:17PM 36.7303 -84.9653 172° South 482 555 31,000  Level Indianapolis Center
07:18PM 36.5969 -84.9419 172° South 482 555 31,000  Level Indianapolis Center
07:19PM 36.4636 -84.9181 172° South 482 555 31,000  Level Indianapolis Center
07:20PM 36.3308 -84.8953 172° South 482 555 31,000  Level Indianapolis Center
07:21PM 36.1983 -84.8728 172° South 482 555 31,000  Level Indianapolis Center
07:21PM 36.0847 -84.8531 172° South 483 556 31,000  Level Atlanta Center
07:22PM 35.9536 -84.8289 172° South 483 556 31,000  Level Atlanta Center
07:23PM 35.8161 -84.8094 173° South 488 562 31,000  Level Atlanta Center
07:24PM 35.6847 -84.7853 172° South 488 562 31,000  Level Atlanta Center
07:25PM 35.5556 -84.7636 172° South 482 555 31,000  Level Atlanta Center
07:26PM 35.4222 -84.7397 172° South 482 555 31,000  Level Atlanta Center
07:27PM 35.2908 -84.7156 171° South 482 555 31,000  Level Atlanta Center
07:28PM 35.1844 -84.6994 173° South 482 555 31,000  Level Atlanta Center
07:29PM 35.0406 -84.6731 171° South 482 555 31,000  Level Atlanta Center
07:30PM 34.9133 -84.6517 172° South 482 555 31,000  Level Atlanta Center
07:31PM 34.7822 -84.6306 172° South 482 555 31,000  Level Atlanta Center
07:32PM 34.6425 -84.6044 171° South 482 555 31,000  Level Atlanta Center
07:33PM 34.5172 -84.5833 172° South 472 543 31,000  Level Atlanta Center
07:34PM 34.3839 -84.5597 172° South 467 537 31,100  Climbing Atlanta Center
07:35PM 34.2586 -84.5414 173° South 467 537 31,000 -60 Descending Atlanta Center
07:36PM 34.1419 -84.5208 172° South 467 537 31,000  Level Atlanta Center
07:37PM 33.9981 -84.4997 173° South 477 549 31,000  Level Atlanta Center
07:38PM 33.8708 -84.4767 171° South 477 549 31,000  Level Atlanta Center
07:39PM 33.7414 -84.4561 172° South 477 549 31,000  Level Atlanta Center
07:40PM 33.6100 -84.4353 172° South 477 549 31,000  Level Atlanta Center
07:41PM 33.4825 -84.4347 180° South 465 535 31,000  Level Atlanta Center
07:42PM 33.3533 -84.4342 180° South 465 535 31,000  Level Atlanta Center
07:43PM 33.2197 -84.4311 179° South 465 535 31,000  Level Atlanta Center
07:44PM 33.1006 -84.4231 177° South 465 535 31,000  Level Atlanta Center
07:45PM 32.9650 -84.4003 172° South 486 559 31,000  Level Atlanta Center
07:46PM 32.8294 -84.3775 172° South 491 565 31,000  Level Atlanta Center
07:47PM 32.6814 -84.3497 171° South 497 572 31,000  Level Atlanta Center
07:48PM 32.5456 -84.3272 172° South 497 572 31,000  Level Atlanta Center
07:49PM 32.4081 -84.3069 173° South 502 578 31,000  Level Atlanta Center
07:50PM 32.2722 -84.2844 172° South 502 578 31,000  Level Atlanta Center
07:51PM 32.1347 -84.2619 172° South 502 578 31,000  Level Atlanta Center
07:52PM 31.9989 -84.2397 172° South 502 578 31,000  Level Atlanta Center
07:54PM 31.8444 -84.2156 172° South 479 551 31,000  Level Jacksonville Center
07:55PM 31.7069 -84.1917 172° South 485 558 31,000 -360 Level Jacksonville Center
07:56PM 31.5692 -84.1678 172° South 495 570 30,300 -840 Descending Jacksonville Center
07:57PM 31.4317 -84.1464 172° South 502 578 29,400 -660 Descending Jacksonville Center
07:58PM 31.2983 -84.1253 172° South 502 578 29,000 -240 Descending Jacksonville Center
07:59PM 31.1628 -84.1042 172° South 497 572 29,000  Level Jacksonville Center
08:00PM 31.0314 -84.0806 171° South 492 566 29,000  Level Jacksonville Center
08:01PM 30.9022 -84.0403 165° South 486 559 29,000  Level Jacksonville Center
08:02PM 30.7733 -84.0025 166° South 486 559 29,000  Level Jacksonville Center
08:03PM 30.6419 -83.9575 164° South 486 559 29,000  Level Jacksonville Center
08:04PM 30.5275 -83.9200 164° South 486 559 29,000  Level Jacksonville Center
08:05PM 30.3983 -83.8775 164° South 486 559 29,000  Level Jacksonville Center
08:06PM 30.2672 -83.8403 166° South 486 559 29,000  Level Jacksonville Center
08:07PM 30.1339 -83.7981 165° South 491 565 29,000  Level Jacksonville Center
08:08PM 30.0006 -83.7536 164° South 491 565 29,000  Level Jacksonville Center
08:09PM 29.8692 -83.7142 165° South 491 565 29,000 -840 Level Jacksonville Center
08:10PM 29.7358 -83.6700 164° South 491 565 27,400 -1,020 Descending Jacksonville Center
08:11PM 29.5922 -83.6258 165° South 491 565 27,000 -240 Descending Jacksonville Center
08:12PM 29.4631 -83.5844 164° South 486 559 27,000  Level Jacksonville Center
08:13PM 29.3336 -83.5453 165° South 486 559 27,000 -600 Level Jacksonville Center
08:14PM 29.2086 -83.4992 162° South 480 552 25,800 -1,500 Descending Jacksonville Center
08:15PM 29.0900 -83.4250 151° Southeast 480 552 24,000 -1,260 Descending Jacksonville Center
08:16PM 28.9756 -83.3531 151° Southeast 474 545 23,300 -1,380 Descending Jacksonville Center
08:17PM 28.8653 -83.2814 150° Southeast 474 545 21,300 -1,380 Descending Jacksonville Center
08:18PM 28.7547 -83.2122 151° Southeast 463 533 20,600 -1,560 Descending Jacksonville Center
08:19PM 28.6464 -83.1433 151° Southeast 457 526 18,200 -2,520 Descending Jacksonville Center
08:20PM 28.5167 -83.0667 153° Southeast 425 489 15,000 -2,340 Descending Tampa TRACON
08:21PM 28.4000 -83.0000 153° Southeast 407 468 12,800 -1,680 Descending Tampa TRACON
08:22PM 28.3000 -82.9333 150° Southeast 369 425 11,500 -1,140 Descending Tampa TRACON
08:23PM 28.2167 -82.9167 170° South 326 375 10,600 -1,260 Descending Tampa TRACON
08:24PM 28.1333 -82.9000 170° South 290 334 9,000 -2,160 Descending Tampa TRACON
08:25PM 28.0500 -82.8667 161° South 282 325 6,200 -2,580 Descending Tampa TRACON
08:26PM 27.9833 -82.8500 168° South 274 315 3,900 -1,680 Descending Tampa TRACON
08:27PM 27.9167 -82.8333 168° South 238 274 3,000 -900 Descending Tampa TRACON
08:28PM 27.8667 -82.8167 164° South 193 222 2,200 -720 Descending Tampa TRACON
08:29PM 27.8167 -82.7833 149° Southeast 189 217 1,600 -420 Descending Tampa TRACON
08:30PM 27.8167 -82.7167 90° East 182 209 1,400 -300 Descending Tampa TRACON
08:31PM 27.8500 -82.6833 41° Northeast 151 174 1,100 -480 Descending Tampa TRACON
08:32PM 27.8833 -82.6833 360° North 132 152 400 -720 Descending Tampa TRACON